createdAt,value
2018-08-31T00:02:14.892Z,9.67
2018-08-31T00:04:54.491Z,8.97
2018-08-31T00:07:36.372Z,12.77
2018-08-31T00:10:20.299Z,10.73
2018-08-31T00:12:48.589Z,13.23
2018-08-31T00:15:16.990Z,10.60
2018-08-31T00:17:45.330Z,15.57
2018-08-31T00:20:14.485Z,14.23
2018-08-31T00:22:42.806Z,12.13
2018-08-31T00:26:22.857Z,10.87
2018-08-31T00:29:42.473Z,11.53
2018-08-31T00:33:28.188Z,12.60
2018-08-31T00:36:39.821Z,15.10
2018-08-31T00:39:19.751Z,13.63
2018-08-31T00:41:59.657Z,13.27
2018-08-31T00:45:39.445Z,20.17
2018-08-31T00:48:08.142Z,15.07
2018-08-31T00:50:36.832Z,14.90
2018-08-31T00:53:05.902Z,16.37
2018-08-31T00:55:34.546Z,14.10
2018-08-31T00:58:03.022Z,15.03
2018-08-31T01:00:31.473Z,13.43
2018-08-31T01:02:59.838Z,12.03
2018-08-31T01:05:30.532Z,12.73
2018-08-31T01:07:58.918Z,13.20
2018-08-31T01:10:27.318Z,10.87
2018-08-31T01:12:56.307Z,12.80
2018-08-31T01:15:24.729Z,12.43
2018-08-31T01:17:53.200Z,14.07
2018-08-31T01:20:21.510Z,12.60
2018-08-31T01:22:49.958Z,10.80
2018-08-31T01:25:18.296Z,12.37
2018-08-31T01:27:46.636Z,14.43
2018-08-31T01:30:15.084Z,16.40
2018-08-31T01:32:43.558Z,13.80
2018-08-31T01:35:11.939Z,15.40
2018-08-31T01:37:40.316Z,13.13
2018-08-31T01:40:08.740Z,13.73
2018-08-31T01:42:37.088Z,11.47
2018-08-31T01:45:05.680Z,13.87
2018-08-31T01:47:34.326Z,12.77
2018-08-31T01:50:09.481Z,13.20
2018-08-31T01:52:37.785Z,9.17
2018-08-31T01:55:06.436Z,13.10
2018-08-31T01:57:34.883Z,13.27
2018-08-31T02:00:03.412Z,13.77
2018-08-31T02:02:31.822Z,10.87
2018-08-31T02:05:00.170Z,10.80
2018-08-31T02:07:28.476Z,13.50
2018-08-31T02:09:56.956Z,11.53
2018-08-31T02:12:25.344Z,13.53
2018-08-31T02:14:53.820Z,10.53
2018-08-31T02:17:28.878Z,10.47
2018-08-31T02:19:57.195Z,10.70
2018-08-31T02:22:25.633Z,10.63
2018-08-31T02:24:54.055Z,11.90
2018-08-31T02:27:22.475Z,10.20
2018-08-31T02:29:50.847Z,11.47
2018-08-31T02:32:19.264Z,9.10
2018-08-31T02:34:47.580Z,10.33
2018-08-31T02:37:15.987Z,14.43
2018-08-31T02:39:47.350Z,12.67
2018-08-31T02:42:15.724Z,14.63
2018-08-31T02:44:45.473Z,15.13
2018-08-31T02:47:13.925Z,15.83
2018-08-31T02:49:42.285Z,13.43
2018-08-31T02:52:10.604Z,10.20
2018-08-31T02:54:38.998Z,11.63
2018-08-31T02:57:08.126Z,14.33
2018-08-31T02:59:36.536Z,14.17
2018-08-31T03:02:05.016Z,13.33
2018-08-31T03:04:33.440Z,15.57
2018-08-31T03:07:01.858Z,12.37
2018-08-31T03:09:30.260Z,13.37
2018-08-31T03:11:58.718Z,10.00
2018-08-31T03:14:27.059Z,11.60
2018-08-31T03:16:55.426Z,10.83
2018-08-31T03:19:23.791Z,9.97
2018-08-31T03:21:52.255Z,9.00
2018-08-31T03:24:20.582Z,8.87
2018-08-31T03:26:48.861Z,12.63
2018-08-31T03:29:17.229Z,9.93
2018-08-31T03:31:48.999Z,9.47
2018-08-31T03:34:17.389Z,12.37
2018-08-31T03:36:49.993Z,12.17
2018-08-31T03:39:18.354Z,10.63
2018-08-31T03:41:46.958Z,11.40
2018-08-31T03:44:15.342Z,9.83
2018-08-31T03:46:48.075Z,9.37
2018-08-31T03:49:16.532Z,9.03
2018-08-31T03:51:44.834Z,9.57
2018-08-31T03:54:13.108Z,8.47
2018-08-31T03:56:41.450Z,7.57
2018-08-31T03:59:09.719Z,9.13
2018-08-31T04:01:38.019Z,9.07
2018-08-31T04:04:06.345Z,9.90
2018-08-31T04:06:34.721Z,10.97
2018-08-31T04:09:03.145Z,11.73
2018-08-31T04:11:31.442Z,10.57
2018-08-31T04:13:59.841Z,9.13
2018-08-31T04:16:28.337Z,8.20
2018-08-31T04:18:56.697Z,11.20
2018-08-31T04:21:25.008Z,9.37
2018-08-31T04:23:53.277Z,8.20
2018-08-31T04:26:23.395Z,9.77
2018-08-31T04:28:54.781Z,7.77
2018-08-31T04:31:24.128Z,11.80
2018-08-31T04:33:52.486Z,7.27
2018-08-31T04:36:20.881Z,12.03
2018-08-31T04:38:49.125Z,9.70
2018-08-31T04:41:17.598Z,8.43
2018-08-31T04:43:45.885Z,11.03
2018-08-31T04:46:14.247Z,6.83
2018-08-31T04:48:42.619Z,7.80
2018-08-31T04:51:10.921Z,9.63
2018-08-31T04:53:39.359Z,8.03
2018-08-31T04:56:08.326Z,12.47
2018-08-31T04:58:36.663Z,11.67
2018-08-31T05:01:10.973Z,9.73
2018-08-31T05:03:39.399Z,9.73
2018-08-31T05:06:07.643Z,5.47
2018-08-31T05:08:35.940Z,11.93
2018-08-31T05:11:04.345Z,6.93
2018-08-31T05:13:32.666Z,7.80
2018-08-31T05:16:01.436Z,7.50
2018-08-31T05:18:29.873Z,6.77
2018-08-31T05:20:58.137Z,8.67
2018-08-31T05:23:26.400Z,11.23
2018-08-31T05:25:54.703Z,6.83
2018-08-31T05:28:24.000Z,9.63
2018-08-31T05:31:14.336Z,9.10
2018-08-31T05:33:42.710Z,9.13
2018-08-31T05:36:12.048Z,6.57
2018-08-31T05:38:41.390Z,7.57
2018-08-31T05:41:09.624Z,9.97
2018-08-31T05:43:37.919Z,12.57
2018-08-31T05:46:06.414Z,7.30
2018-08-31T05:48:34.709Z,6.90
2018-08-31T05:51:09.432Z,6.60
2018-08-31T05:53:37.792Z,6.60
2018-08-31T05:56:07.162Z,9.43
2018-08-31T05:58:35.460Z,9.67
2018-08-31T06:01:03.690Z,10.17
2018-08-31T06:03:32.541Z,9.40
2018-08-31T06:06:02.041Z,5.33
2018-08-31T06:08:30.277Z,7.33
2018-08-31T06:10:58.537Z,8.23
2018-08-31T06:13:26.785Z,4.37
2018-08-31T06:15:55.149Z,5.23
2018-08-31T06:18:23.423Z,5.87
2018-08-31T06:20:51.730Z,4.83
2018-08-31T06:23:19.947Z,5.37
2018-08-31T06:25:48.197Z,6.40
2018-08-31T06:28:16.498Z,5.37
2018-08-31T06:30:44.782Z,7.17
2018-08-31T06:33:13.017Z,6.47
2018-08-31T06:35:41.286Z,9.83
2018-08-31T06:38:09.580Z,6.83
2018-08-31T06:40:37.914Z,4.97
2018-08-31T06:43:06.078Z,6.17
2018-08-31T06:45:34.366Z,7.03
2018-08-31T06:48:02.621Z,6.10
2018-08-31T06:50:31.314Z,8.23
2018-08-31T06:53:05.901Z,7.70
2018-08-31T06:55:35.275Z,5.70
2018-08-31T06:58:05.535Z,8.00
2018-08-31T07:00:35.337Z,8.33
2018-08-31T07:03:11.915Z,4.43
2018-08-31T07:05:57.687Z,6.90
2018-08-31T07:11:20.715Z,6.20
2018-08-31T07:16:44.116Z,8.77
2018-08-31T07:19:13.862Z,7.13
2018-08-31T07:21:51.362Z,5.50
2018-08-31T07:24:32.326Z,7.30
2018-08-31T07:31:59.595Z,6.80
2018-08-31T07:34:39.236Z,6.83
2018-08-31T07:50:51.907Z,8.37
2018-08-31T07:53:21.677Z,5.30
2018-08-31T07:55:50.927Z,5.90
2018-08-31T07:58:20.288Z,6.37
2018-08-31T08:00:50.430Z,4.57
2018-08-31T08:03:19.556Z,7.23
2018-08-31T08:05:48.411Z,6.80
2018-08-31T08:08:17.604Z,5.60
2018-08-31T08:10:47.106Z,7.90
2018-08-31T08:13:16.225Z,5.97
2018-08-31T08:15:45.562Z,8.67
2018-08-31T08:18:14.482Z,5.03
2018-08-31T08:20:43.571Z,9.20
2018-08-31T08:23:12.939Z,9.63
2018-08-31T08:25:42.023Z,5.87
2018-08-31T08:28:10.920Z,8.10
2018-08-31T08:30:39.825Z,6.47
2018-08-31T08:33:09.620Z,7.37
2018-08-31T08:35:39.308Z,6.23
2018-08-31T08:38:08.613Z,7.80
2018-08-31T08:40:37.442Z,6.30
2018-08-31T08:43:06.654Z,9.40
2018-08-31T08:45:36.395Z,8.40
2018-08-31T08:48:05.335Z,9.93
2018-08-31T08:50:35.574Z,7.73
2018-08-31T08:53:05.158Z,8.80
2018-08-31T08:55:34.230Z,8.30
2018-08-31T08:58:03.275Z,6.30
2018-08-31T09:00:32.318Z,7.13
2018-08-31T09:03:01.637Z,6.00
2018-08-31T09:05:30.766Z,7.57
2018-08-31T09:08:01.158Z,6.07
2018-08-31T09:10:31.678Z,9.93
2018-08-31T09:13:03.265Z,7.87
2018-08-31T09:15:35.371Z,7.23
2018-08-31T09:18:06.831Z,8.43
2018-08-31T09:20:37.898Z,8.63
2018-08-31T09:23:07.882Z,8.03
2018-08-31T09:25:38.263Z,7.50
2018-08-31T09:28:09.335Z,7.13
2018-08-31T09:30:43.558Z,5.97
2018-08-31T09:33:14.285Z,6.23
2018-08-31T09:35:43.900Z,6.43
2018-08-31T09:38:14.249Z,9.47
2018-08-31T09:40:43.768Z,7.43
2018-08-31T09:43:13.783Z,7.10
2018-08-31T09:45:44.292Z,7.33
2018-08-31T09:48:14.637Z,5.10
2018-08-31T09:50:44.607Z,7.10
2018-08-31T09:53:14.656Z,6.73
2018-08-31T09:55:44.922Z,5.67
2018-08-31T09:58:15.067Z,4.57
2018-08-31T10:00:50.037Z,5.47
2018-08-31T10:03:26.278Z,7.63
2018-08-31T10:05:57.218Z,6.17
2018-08-31T10:08:28.502Z,5.47
2018-08-31T10:10:58.813Z,5.17
2018-08-31T10:13:31.826Z,7.07
2018-08-31T10:16:01.812Z,3.57
2018-08-31T10:18:32.062Z,3.57
2018-08-31T10:21:00.491Z,7.07
2018-08-31T10:23:28.837Z,8.57
2018-08-31T10:25:57.105Z,6.93
2018-08-31T10:28:25.479Z,6.47
2018-08-31T10:30:53.771Z,3.93
2018-08-31T10:33:22.137Z,4.90
2018-08-31T10:35:50.459Z,4.57
2018-08-31T10:38:18.899Z,5.30
2018-08-31T10:40:47.296Z,5.57
2018-08-31T10:43:15.607Z,5.47
2018-08-31T10:45:43.907Z,5.23
2018-08-31T10:48:12.191Z,3.07
2018-08-31T10:50:40.467Z,3.63
2018-08-31T10:53:08.777Z,4.33
2018-08-31T10:55:37.058Z,3.87
2018-08-31T10:58:05.386Z,3.47
2018-08-31T11:00:33.671Z,5.70
2018-08-31T11:03:02.027Z,4.70
2018-08-31T11:05:30.330Z,4.57
2018-08-31T11:07:58.682Z,2.27
2018-08-31T11:10:27.018Z,3.77
2018-08-31T11:12:55.584Z,4.67
2018-08-31T11:15:24.032Z,5.93
2018-08-31T11:17:52.567Z,4.80
2018-08-31T11:20:21.084Z,5.93
2018-08-31T11:22:49.429Z,7.00
2018-08-31T11:25:17.867Z,4.50
2018-08-31T11:27:46.223Z,4.00
2018-08-31T11:30:14.565Z,5.47
2018-08-31T11:32:42.944Z,5.73
2018-08-31T11:35:11.362Z,5.60
2018-08-31T11:37:39.707Z,10.10
2018-08-31T11:40:08.186Z,3.87
2018-08-31T11:42:36.622Z,3.33
2018-08-31T11:45:05.134Z,4.63
2018-08-31T11:47:33.554Z,5.60
2018-08-31T11:50:01.924Z,4.87
2018-08-31T11:52:30.384Z,4.90
2018-08-31T11:54:58.728Z,6.57
2018-08-31T11:57:27.090Z,2.43
2018-08-31T11:59:55.424Z,6.17
2018-08-31T12:02:23.735Z,2.93
2018-08-31T12:04:52.061Z,4.77
2018-08-31T12:07:20.474Z,4.73
2018-08-31T12:09:48.832Z,4.70
2018-08-31T12:12:17.162Z,4.97
2018-08-31T12:14:45.555Z,3.70
2018-08-31T12:17:13.853Z,5.70
2018-08-31T12:19:42.296Z,4.60
2018-08-31T12:22:10.604Z,2.40
2018-08-31T12:24:39.007Z,3.53
2018-08-31T12:27:07.334Z,5.93
2018-08-31T12:29:35.658Z,6.60
2018-08-31T12:32:04.206Z,4.60
2018-08-31T12:34:32.565Z,3.40
2018-08-31T12:37:02.027Z,4.80
2018-08-31T12:39:30.424Z,3.33
2018-08-31T12:41:58.818Z,4.33
2018-08-31T12:44:27.386Z,4.43
2018-08-31T12:46:55.914Z,5.40
2018-08-31T12:49:24.402Z,5.23
2018-08-31T12:51:52.828Z,3.60
2018-08-31T12:54:21.264Z,5.27
2018-08-31T12:56:49.791Z,5.00
2018-08-31T12:59:18.231Z,3.77
2018-08-31T13:01:46.715Z,3.57
2018-08-31T13:04:15.197Z,3.70
2018-08-31T13:06:50.149Z,2.67
2018-08-31T13:09:18.666Z,6.00
2018-08-31T13:11:47.252Z,4.30
2018-08-31T13:14:15.573Z,2.60
2018-08-31T13:16:44.039Z,4.30
2018-08-31T13:19:12.468Z,4.37
2018-08-31T13:21:40.952Z,6.33
2018-08-31T13:24:10.879Z,3.92
2018-08-31T13:26:39.232Z,4.20
2018-08-31T13:29:08.098Z,4.70
2018-08-31T13:31:36.615Z,4.90
2018-08-31T13:34:05.054Z,4.73
2018-08-31T13:36:33.509Z,3.43
2018-08-31T13:39:02.720Z,5.23
2018-08-31T13:41:31.535Z,3.55
2018-08-31T13:43:59.968Z,4.43
2018-08-31T13:46:28.422Z,5.00
2018-08-31T13:48:56.779Z,4.20
2018-08-31T13:51:25.274Z,3.47
2018-08-31T13:53:54.440Z,4.60
2018-08-31T13:56:22.849Z,3.20
2018-08-31T13:58:51.219Z,1.70
2018-08-31T14:01:19.596Z,5.77
2018-08-31T14:03:48.202Z,1.80
2018-08-31T14:06:16.632Z,3.97
2018-08-31T14:08:45.370Z,7.37
2018-08-31T14:11:13.945Z,5.67
2018-08-31T14:13:42.935Z,8.73
2018-08-31T14:16:13.594Z,8.13
2018-08-31T14:18:42.007Z,4.07
2018-08-31T14:21:10.403Z,4.93
2018-08-31T14:23:38.829Z,5.27
2018-08-31T14:26:07.175Z,5.53
2018-08-31T14:28:35.945Z,6.13
2018-08-31T14:31:04.415Z,2.57
2018-08-31T14:33:33.127Z,4.00
2018-08-31T14:36:01.516Z,4.43
2018-08-31T14:38:30.771Z,5.60
2018-08-31T14:40:59.327Z,4.07
2018-08-31T14:43:28.075Z,2.63
2018-08-31T14:45:56.642Z,4.30
2018-08-31T14:48:25.292Z,4.37
2018-08-31T14:50:53.883Z,5.63
2018-08-31T14:53:22.465Z,3.77
2018-08-31T14:55:51.102Z,3.17
2018-08-31T14:58:20.448Z,4.50
2018-08-31T15:00:49.229Z,6.23
2018-08-31T15:03:18.399Z,5.57
2018-08-31T15:05:47.234Z,6.20
2018-08-31T15:08:16.981Z,2.70
2018-08-31T15:10:45.518Z,4.40
2018-08-31T15:13:13.977Z,4.53
2018-08-31T15:15:43.394Z,5.13
2018-08-31T15:18:11.938Z,5.47
2018-08-31T15:20:40.557Z,2.03
2018-08-31T15:23:09.352Z,2.85
2018-08-31T15:25:37.954Z,4.42
2018-08-31T15:28:06.393Z,5.63
2018-08-31T15:30:35.108Z,3.50
2018-08-31T15:33:03.804Z,4.03
2018-08-31T15:35:32.376Z,5.40
2018-08-31T15:38:00.789Z,2.30
2018-08-31T15:40:29.390Z,4.27
2018-08-31T15:42:57.870Z,5.13
2018-08-31T15:45:26.634Z,5.10
2018-08-31T15:47:55.447Z,5.00
2018-08-31T15:50:24.124Z,4.10
2018-08-31T15:52:53.966Z,4.03
2018-08-31T15:55:23.091Z,3.67
2018-08-31T15:57:51.610Z,3.00
2018-08-31T16:00:22.182Z,5.97
2018-08-31T16:02:50.726Z,7.00
2018-08-31T16:05:19.162Z,6.53
2018-08-31T16:07:48.437Z,4.10
2018-08-31T16:10:17.298Z,3.87
2018-08-31T16:12:45.717Z,6.00
2018-08-31T16:15:14.107Z,6.83
2018-08-31T16:17:42.607Z,6.30
2018-08-31T16:20:11.067Z,4.10
2018-08-31T16:22:39.416Z,2.93
2018-08-31T16:25:07.887Z,4.85
2018-08-31T16:27:36.242Z,3.47
2018-08-31T16:30:05.232Z,3.87
2018-08-31T16:32:33.570Z,4.03
2018-08-31T16:35:01.955Z,4.67
2018-08-31T16:37:30.601Z,5.13
2018-08-31T16:39:59.011Z,6.03
2018-08-31T16:42:27.324Z,4.60
2018-08-31T16:44:55.977Z,6.70
2018-08-31T16:47:24.790Z,5.03
2018-08-31T16:49:53.122Z,3.50
2018-08-31T16:52:21.444Z,6.07
2018-08-31T16:54:53.108Z,5.77
2018-08-31T16:57:21.482Z,6.03
2018-08-31T16:59:49.963Z,4.67
2018-08-31T17:02:18.405Z,4.40
2018-08-31T17:04:46.795Z,4.57
2018-08-31T17:07:15.303Z,4.37
2018-08-31T17:09:43.630Z,6.33
2018-08-31T17:12:12.007Z,5.27
2018-08-31T17:14:40.378Z,5.13
2018-08-31T17:17:08.731Z,4.53
2018-08-31T17:19:37.219Z,3.70
2018-08-31T17:22:05.967Z,5.67
2018-08-31T17:24:34.417Z,4.97
2018-08-31T17:27:08.095Z,5.57
2018-08-31T17:29:40.613Z,3.90
2018-08-31T17:32:14.533Z,3.27
2018-08-31T17:34:48.155Z,5.33
2018-08-31T17:37:21.744Z,4.80
2018-08-31T17:39:50.088Z,3.77
2018-08-31T17:42:18.445Z,6.13
2018-08-31T17:44:46.803Z,6.87
2018-08-31T17:47:15.351Z,5.80
2018-08-31T17:49:43.753Z,6.00
2018-08-31T17:52:12.179Z,2.57
2018-08-31T17:54:40.568Z,5.90
2018-08-31T17:57:08.937Z,4.90
2018-08-31T17:59:37.313Z,2.93
2018-08-31T18:02:05.743Z,4.30
2018-08-31T18:04:34.395Z,3.50
2018-08-31T18:07:02.784Z,5.70
2018-08-31T18:09:31.357Z,2.97
2018-08-31T18:11:59.961Z,4.07
2018-08-31T18:14:28.911Z,4.07
2018-08-31T18:16:57.253Z,6.03
2018-08-31T18:19:25.940Z,4.83
2018-08-31T18:21:54.373Z,3.93
2018-08-31T18:24:23.650Z,3.07
2018-08-31T18:26:52.230Z,5.10
2018-08-31T18:29:20.800Z,4.47
2018-08-31T18:31:49.146Z,3.43
2018-08-31T18:34:17.562Z,4.90
2018-08-31T18:36:45.866Z,3.23
2018-08-31T18:39:14.294Z,5.63
2018-08-31T18:41:42.656Z,7.53
2018-08-31T18:44:11.095Z,5.10
2018-08-31T18:46:39.687Z,4.20
2018-08-31T18:49:07.982Z,4.97
2018-08-31T18:51:36.511Z,7.23
2018-08-31T18:54:04.833Z,5.23
2018-08-31T18:56:33.197Z,4.57
2018-08-31T18:59:01.730Z,4.67
2018-08-31T19:01:30.024Z,3.67
2018-08-31T19:03:58.575Z,4.60
2018-08-31T19:06:26.894Z,5.03
2018-08-31T19:08:55.226Z,6.00
2018-08-31T19:11:23.621Z,6.07
2018-08-31T19:13:52.008Z,9.03
2018-08-31T19:16:20.333Z,6.57
2018-08-31T19:18:48.728Z,5.03
2018-08-31T19:21:17.107Z,5.30
2018-08-31T19:23:45.567Z,6.00
2018-08-31T19:26:14.343Z,3.47
2018-08-31T19:28:42.662Z,5.77
2018-08-31T19:31:11.020Z,5.33
2018-08-31T19:33:39.511Z,4.33
2018-08-31T19:36:08.196Z,4.97
2018-08-31T19:38:36.517Z,4.80
2018-08-31T19:41:04.925Z,4.13
2018-08-31T19:43:33.204Z,5.53
2018-08-31T19:46:01.810Z,8.53
2018-08-31T19:48:30.140Z,5.50
2018-08-31T19:50:58.481Z,4.77
2018-08-31T19:53:26.930Z,10.33
2018-08-31T19:55:55.550Z,7.67
2018-08-31T19:58:24.013Z,7.00
2018-08-31T20:00:52.337Z,5.73
2018-08-31T20:03:20.834Z,4.83
2018-08-31T20:05:49.192Z,5.40
2018-08-31T20:08:17.889Z,7.57
2018-08-31T20:10:46.209Z,3.83
2018-08-31T20:13:14.577Z,6.27
2018-08-31T20:15:42.905Z,6.80
2018-08-31T20:18:11.430Z,6.13
2018-08-31T20:20:40.063Z,6.27
2018-08-31T20:23:08.387Z,5.97
2018-08-31T20:25:36.694Z,5.57
2018-08-31T20:28:05.106Z,6.27
2018-08-31T20:30:33.590Z,8.03
2018-08-31T20:33:01.918Z,4.70
2018-08-31T20:35:30.250Z,8.73
2018-08-31T20:37:58.594Z,5.83
2018-08-31T20:40:27.104Z,4.73
2018-08-31T20:42:55.621Z,4.63
2018-08-31T20:45:23.974Z,6.37
2018-08-31T20:47:52.491Z,6.20
2018-08-31T20:50:21.116Z,5.37
2018-08-31T20:52:49.707Z,5.70
2018-08-31T20:55:18.402Z,4.43
2018-08-31T20:57:47.016Z,4.47
2018-08-31T21:00:32.369Z,5.57
2018-08-31T21:03:01.719Z,5.37
2018-08-31T21:05:38.765Z,6.73
2018-08-31T21:08:07.048Z,7.60
2018-08-31T21:10:35.396Z,4.90
2018-08-31T21:13:03.686Z,3.33
2018-08-31T21:15:32.234Z,4.57
2018-08-31T21:18:00.564Z,5.70
2018-08-31T21:20:28.875Z,7.70
2018-08-31T21:22:57.195Z,6.83
2018-08-31T21:25:25.538Z,7.70
2018-08-31T21:27:53.939Z,6.27
2018-08-31T21:30:22.335Z,4.97
2018-08-31T21:32:50.772Z,5.90
2018-08-31T21:35:19.090Z,5.23
2018-08-31T21:37:47.382Z,6.70
2018-08-31T21:40:15.689Z,3.73
2018-08-31T21:42:44.045Z,3.90
2018-08-31T21:45:12.360Z,4.37
2018-08-31T21:47:40.670Z,5.30
2018-08-31T21:50:09.114Z,6.43
2018-08-31T21:52:37.438Z,6.30
2018-08-31T21:55:06.276Z,6.50
2018-08-31T21:57:34.639Z,6.43
2018-08-31T22:00:02.986Z,5.83
2018-08-31T22:02:31.323Z,7.10
2018-08-31T22:04:59.646Z,6.93
2018-08-31T22:07:28.044Z,8.33
2018-08-31T22:09:56.373Z,4.97
2018-08-31T22:12:24.719Z,7.63
2018-08-31T22:14:53.060Z,5.20
2018-08-31T22:17:21.376Z,7.67
2018-08-31T22:19:49.772Z,5.63
2018-08-31T22:22:18.154Z,6.27
2018-08-31T22:24:46.557Z,7.20
2018-08-31T22:27:14.905Z,7.53
2018-08-31T22:29:43.257Z,5.43
2018-08-31T22:32:11.619Z,6.67
2018-08-31T22:34:39.932Z,7.63
2018-08-31T22:37:08.282Z,5.73
2018-08-31T22:39:36.591Z,5.07
2018-08-31T22:42:04.989Z,5.67
2018-08-31T22:44:35.788Z,5.83
2018-08-31T22:47:04.858Z,5.67
2018-08-31T22:49:33.154Z,7.97
2018-08-31T22:52:01.580Z,4.80
2018-08-31T22:54:29.914Z,4.30
2018-08-31T22:56:58.281Z,5.07
2018-08-31T22:59:26.763Z,5.10
2018-08-31T23:01:55.099Z,5.77
2018-08-31T23:04:23.437Z,5.53
2018-08-31T23:06:51.754Z,4.83
2018-08-31T23:09:20.046Z,4.90
2018-08-31T23:11:48.388Z,6.47
2018-08-31T23:14:16.712Z,6.90
2018-08-31T23:16:45.033Z,5.93
2018-08-31T23:19:13.318Z,5.37
2018-08-31T23:21:41.641Z,5.40
2018-08-31T23:24:09.919Z,4.20
2018-08-31T23:26:38.266Z,5.73
2018-08-31T23:29:06.618Z,5.07
2018-08-31T23:31:35.010Z,5.07
2018-08-31T23:34:03.383Z,4.23
2018-08-31T23:36:31.676Z,5.77
2018-08-31T23:39:00.008Z,6.03
2018-08-31T23:41:28.367Z,6.27
2018-08-31T23:43:56.671Z,4.80
2018-08-31T23:46:24.960Z,6.27
2018-08-31T23:48:53.355Z,6.43
2018-08-31T23:51:21.677Z,3.97
2018-08-31T23:53:50.034Z,4.33
2018-08-31T23:56:18.443Z,4.33
2018-08-31T23:58:46.792Z,4.70
